createdAt,value
2023-02-12T00:01:56.972Z,33.31
2023-02-12T00:04:23.360Z,33.68
2023-02-12T00:06:49.705Z,33.73
2023-02-12T00:09:16.058Z,33.43
2023-02-12T00:11:42.377Z,33.30
2023-02-12T00:14:08.708Z,33.56
2023-02-12T00:16:35.069Z,33.22
2023-02-12T00:19:01.445Z,33.33
2023-02-12T00:21:27.830Z,33.56
2023-02-12T00:23:54.161Z,33.58
2023-02-12T00:26:21.010Z,33.49
2023-02-12T00:28:47.318Z,33.83
2023-02-12T00:31:14.577Z,33.54
2023-02-12T00:33:40.935Z,33.77
2023-02-12T00:36:07.590Z,33.37
2023-02-12T00:38:33.949Z,33.56
2023-02-12T00:41:00.270Z,33.65
2023-02-12T00:43:26.588Z,33.24
2023-02-12T00:45:53.200Z,33.64
2023-02-12T00:48:19.725Z,34.39
2023-02-12T00:50:46.209Z,34.12
2023-02-12T00:53:12.668Z,34.52
2023-02-12T00:55:38.988Z,34.59
2023-02-12T00:58:05.315Z,34.73
2023-02-12T01:00:32.440Z,34.44
2023-02-12T01:02:58.796Z,34.29
2023-02-12T01:05:25.418Z,34.30
2023-02-12T01:07:51.939Z,34.19
2023-02-12T01:10:18.319Z,34.24
2023-02-12T01:15:10.861Z,34.40
2023-02-12T01:17:37.170Z,34.50
2023-02-12T01:20:05.736Z,34.22
2023-02-12T01:22:32.061Z,34.54
2023-02-12T01:24:58.394Z,34.17
2023-02-12T01:27:24.714Z,34.29
2023-02-12T01:29:51.070Z,34.32
2023-02-12T01:32:17.483Z,34.55
2023-02-12T01:34:43.877Z,34.52
2023-02-12T01:37:10.273Z,34.32
2023-02-12T01:39:36.629Z,34.56
2023-02-12T01:42:03.415Z,34.56
2023-02-12T01:44:29.878Z,34.19
2023-02-12T01:46:57.355Z,34.21
2023-02-12T01:49:29.307Z,34.29
2023-02-12T01:51:57.924Z,34.54
2023-02-12T01:54:26.052Z,34.38
2023-02-12T01:56:52.377Z,34.33
2023-02-12T01:59:18.892Z,34.32
2023-02-12T02:01:45.279Z,34.07
2023-02-12T02:04:12.510Z,34.65
2023-02-12T02:06:41.719Z,34.34
2023-02-12T02:09:08.033Z,34.43
2023-02-12T02:11:53.117Z,34.23
2023-02-12T02:14:34.676Z,34.43
2023-02-12T02:17:19.672Z,34.40
2023-02-12T02:19:48.979Z,34.37
2023-02-12T02:22:21.247Z,34.25
2023-02-12T02:24:50.573Z,34.47
2023-02-12T02:27:21.016Z,34.20
2023-02-12T02:29:50.031Z,34.26
2023-02-12T02:32:23.571Z,34.23
2023-02-12T02:34:50.676Z,34.25
2023-02-12T02:37:18.583Z,34.04
2023-02-12T02:39:52.836Z,33.97
2023-02-12T02:42:22.094Z,34.02
2023-02-12T02:44:50.103Z,34.10
2023-02-12T02:47:16.829Z,34.06
2023-02-12T02:49:44.783Z,34.13
2023-02-12T02:52:12.599Z,33.85
2023-02-12T02:54:40.598Z,33.83
2023-02-12T02:57:17.610Z,33.90
2023-02-12T02:59:45.221Z,34.10
2023-02-12T03:02:33.445Z,33.94
2023-02-12T03:05:19.693Z,34.05
2023-02-12T03:07:47.478Z,34.17
2023-02-12T03:10:15.448Z,33.95
2023-02-12T03:12:47.749Z,34.04
2023-02-12T03:15:16.362Z,34.11
2023-02-12T03:17:43.560Z,33.96
2023-02-12T03:20:14.371Z,34.03
2023-02-12T03:22:41.209Z,33.98
2023-02-12T03:25:12.054Z,33.97
2023-02-12T03:27:39.228Z,34.16
2023-02-12T03:30:05.794Z,33.93
2023-02-12T03:32:38.072Z,34.02
2023-02-12T03:35:16.633Z,34.06
2023-02-12T03:37:51.976Z,33.77
2023-02-12T03:40:37.199Z,33.95
2023-02-12T03:43:05.077Z,33.80
2023-02-12T03:45:37.822Z,33.83
2023-02-12T03:48:11.744Z,33.65
2023-02-12T03:50:44.794Z,33.81
2023-02-12T03:53:11.108Z,33.92
2023-02-12T03:55:38.523Z,33.68
2023-02-12T03:58:04.832Z,33.95
2023-02-12T04:00:31.178Z,33.86
2023-02-12T04:02:57.485Z,33.78
2023-02-12T04:05:24.873Z,33.58
2023-02-12T04:07:51.382Z,33.92
2023-02-12T04:10:17.829Z,33.79
2023-02-12T04:12:51.536Z,33.83
2023-02-12T04:15:33.188Z,33.78
2023-02-12T04:18:07.644Z,33.83
2023-02-12T04:20:52.961Z,33.66
2023-02-12T04:23:37.713Z,33.85
2023-02-12T04:26:04.033Z,33.79
2023-02-12T04:28:49.142Z,33.80
2023-02-12T04:31:21.730Z,33.71
2023-02-12T04:33:49.233Z,33.73
2023-02-12T04:36:16.730Z,33.64
2023-02-12T04:38:55.929Z,33.60
2023-02-12T04:41:22.551Z,33.46
2023-02-12T04:43:48.875Z,33.54
2023-02-12T04:46:15.439Z,33.37
2023-02-12T04:48:49.854Z,33.47
2023-02-12T04:51:16.193Z,33.80
2023-02-12T04:53:42.499Z,33.72
2023-02-12T04:56:10.905Z,33.51
2023-02-12T04:58:37.737Z,33.52
2023-02-12T05:01:04.182Z,33.61
2023-02-12T05:03:30.541Z,33.36
2023-02-12T05:05:57.109Z,33.75
2023-02-12T05:08:24.085Z,33.45
2023-02-12T05:10:50.424Z,33.57
2023-02-12T05:13:16.748Z,33.45
2023-02-12T05:15:43.078Z,33.46
2023-02-12T05:18:09.394Z,33.56
2023-02-12T05:20:35.707Z,33.57
2023-02-12T05:23:02.034Z,33.65
2023-02-12T05:25:28.347Z,33.51
2023-02-12T05:27:56.670Z,33.70
2023-02-12T05:30:23.004Z,33.72
2023-02-12T05:32:49.546Z,33.64
2023-02-12T05:35:15.879Z,33.38
2023-02-12T05:37:42.181Z,33.66
2023-02-12T05:40:08.886Z,33.64
2023-02-12T05:42:35.216Z,33.71
2023-02-12T05:45:01.534Z,33.65
2023-02-12T05:47:27.865Z,33.71
2023-02-12T05:49:54.467Z,33.58
2023-02-12T05:52:20.799Z,33.59
2023-02-12T05:54:48.997Z,33.71
2023-02-12T05:57:15.328Z,33.76
2023-02-12T05:59:41.631Z,33.43
2023-02-12T06:02:08.016Z,33.58
2023-02-12T06:04:34.340Z,33.46
2023-02-12T06:07:00.725Z,33.12
2023-02-12T06:09:27.061Z,33.23
2023-02-12T06:11:53.629Z,33.39
2023-02-12T06:14:20.016Z,33.28
2023-02-12T06:16:46.940Z,33.38
2023-02-12T06:19:13.253Z,33.36
2023-02-12T06:21:39.604Z,32.95
2023-02-12T06:24:05.920Z,32.86
2023-02-12T06:26:32.247Z,32.94
2023-02-12T06:28:58.751Z,32.96
2023-02-12T06:31:31.895Z,33.16
2023-02-12T06:34:00.051Z,33.14
2023-02-12T06:36:26.367Z,33.08
2023-02-12T06:38:52.702Z,33.03
2023-02-12T06:41:20.535Z,33.04
2023-02-12T06:43:46.864Z,33.32
2023-02-12T06:46:13.231Z,33.17
2023-02-12T06:48:39.603Z,33.23
2023-02-12T06:51:06.049Z,33.12
2023-02-12T06:53:32.784Z,33.14
2023-02-12T06:56:00.576Z,33.06
2023-02-12T06:58:26.888Z,33.10
2023-02-12T07:00:53.215Z,33.13
2023-02-12T07:03:19.560Z,33.04
2023-02-12T07:05:46.168Z,33.07
2023-02-12T07:08:12.480Z,33.37
2023-02-12T07:10:38.793Z,32.92
2023-02-12T07:13:05.176Z,32.81
2023-02-12T07:15:31.492Z,32.84
2023-02-12T07:17:57.832Z,32.80
2023-02-12T07:20:24.148Z,32.82
2023-02-12T07:22:50.488Z,33.01
2023-02-12T07:25:16.792Z,33.03
2023-02-12T07:27:43.116Z,32.84
2023-02-12T07:30:09.557Z,33.00
2023-02-12T07:32:35.941Z,33.06
2023-02-12T07:35:02.259Z,33.26
2023-02-12T07:37:28.717Z,33.20
2023-02-12T07:39:55.094Z,33.13
2023-02-12T07:42:21.405Z,33.20
2023-02-12T07:44:48.203Z,33.08
2023-02-12T07:47:15.206Z,33.10
2023-02-12T07:49:41.516Z,33.46
2023-02-12T07:52:07.819Z,33.36
2023-02-12T07:54:34.207Z,32.98
2023-02-12T07:57:00.633Z,32.92
2023-02-12T07:59:27.049Z,33.05
2023-02-12T08:01:53.366Z,32.98
2023-02-12T08:04:23.943Z,32.80
2023-02-12T08:06:50.810Z,32.80
2023-02-12T08:09:18.224Z,32.92
2023-02-12T08:11:44.594Z,32.84
2023-02-12T08:14:11.404Z,33.08
2023-02-12T08:16:38.380Z,33.40
2023-02-12T08:19:16.993Z,33.34
2023-02-12T08:21:45.476Z,33.07
2023-02-12T08:24:12.019Z,32.94
2023-02-12T08:26:38.602Z,32.87
2023-02-12T08:29:05.928Z,33.00
2023-02-12T08:31:32.926Z,33.00
2023-02-12T08:33:59.249Z,33.03
2023-02-12T08:36:26.391Z,33.10
2023-02-12T08:38:52.752Z,33.36
2023-02-12T08:41:21.385Z,33.33
2023-02-12T08:43:49.250Z,33.24
2023-02-12T08:46:16.894Z,33.36
2023-02-12T08:48:43.587Z,33.46
2023-02-12T08:51:17.317Z,33.18
2023-02-12T08:53:43.828Z,33.11
2023-02-12T08:56:10.376Z,33.53
2023-02-12T08:58:36.748Z,33.78
2023-02-12T09:01:03.512Z,33.91
2023-02-12T09:03:29.865Z,34.17
2023-02-12T09:05:56.734Z,34.15
2023-02-12T09:08:23.230Z,33.96
2023-02-12T09:10:49.539Z,33.84
2023-02-12T09:13:15.897Z,34.02
2023-02-12T09:15:44.859Z,33.84
2023-02-12T09:18:11.500Z,34.19
2023-02-12T09:20:38.912Z,34.01
2023-02-12T09:23:05.869Z,34.11
2023-02-12T09:25:34.366Z,34.57
2023-02-12T09:28:01.461Z,34.56
2023-02-12T09:30:27.909Z,34.70
2023-02-12T09:32:54.728Z,34.61
2023-02-12T09:35:21.058Z,34.62
2023-02-12T09:37:47.655Z,34.45
2023-02-12T09:40:18.878Z,34.49
2023-02-12T09:43:04.059Z,34.13
2023-02-12T09:45:32.961Z,34.74
2023-02-12T09:48:05.194Z,34.84
2023-02-12T09:50:37.634Z,34.63
2023-02-12T09:53:04.286Z,34.51
2023-02-12T09:55:31.260Z,34.68
2023-02-12T09:57:57.586Z,34.91
2023-02-12T10:00:25.040Z,34.91
2023-02-12T10:02:51.983Z,34.75
2023-02-12T10:05:29.033Z,34.80
2023-02-12T10:07:58.361Z,34.88
2023-02-12T10:10:31.484Z,34.75
2023-02-12T10:12:58.940Z,34.58
2023-02-12T10:15:38.772Z,34.70
2023-02-12T10:18:20.370Z,34.71
2023-02-12T10:20:49.137Z,35.06
2023-02-12T10:23:21.462Z,34.98
2023-02-12T10:25:53.847Z,35.13
2023-02-12T10:28:25.333Z,35.02
2023-02-12T10:30:59.077Z,35.18
2023-02-12T10:33:31.281Z,34.88
2023-02-12T10:36:05.015Z,34.83
2023-02-12T10:38:32.737Z,34.75
2023-02-12T10:41:01.788Z,34.81
2023-02-12T10:43:28.451Z,35.08
2023-02-12T10:45:55.011Z,35.26
2023-02-12T10:48:24.582Z,35.42
2023-02-12T10:50:59.994Z,35.40
2023-02-12T10:53:29.613Z,35.52
2023-02-12T10:56:06.693Z,35.79
2023-02-12T10:58:33.278Z,35.99
2023-02-12T11:01:00.156Z,36.72
2023-02-12T11:03:30.446Z,36.35
2023-02-12T11:05:57.313Z,36.24
2023-02-12T11:08:29.890Z,36.22
2023-02-12T11:10:56.223Z,36.34
2023-02-12T11:13:23.473Z,37.56
2023-02-12T11:15:49.936Z,37.19
2023-02-12T11:18:25.207Z,37.37
2023-02-12T11:20:55.964Z,37.42
2023-02-12T11:23:29.765Z,37.40
2023-02-12T11:26:05.879Z,37.10
2023-02-12T11:28:32.627Z,37.16
2023-02-12T11:31:03.012Z,36.91
2023-02-12T11:33:30.473Z,36.67
2023-02-12T11:35:57.838Z,36.80
2023-02-12T11:38:25.215Z,36.56
2023-02-12T11:40:52.444Z,36.94
2023-02-12T11:43:19.153Z,36.37
2023-02-12T11:45:49.776Z,36.47
2023-02-12T11:48:37.610Z,36.43
2023-02-12T11:51:04.313Z,36.29
2023-02-12T11:53:32.162Z,36.46
2023-02-12T11:56:00.072Z,36.41
2023-02-12T11:58:26.802Z,36.17
2023-02-12T12:00:58.941Z,36.35
2023-02-12T12:03:45.456Z,36.51
2023-02-12T12:06:14.556Z,36.62
2023-02-12T12:08:53.136Z,36.83
2023-02-12T12:11:42.812Z,36.86
2023-02-12T12:14:13.449Z,36.69
2023-02-12T12:17:02.585Z,36.85
2023-02-12T12:19:50.176Z,36.69
2023-02-12T12:22:18.837Z,36.51
2023-02-12T12:24:52.131Z,36.65
2023-02-12T12:27:40.458Z,36.67
2023-02-12T12:30:10.944Z,36.68
2023-02-12T12:32:37.579Z,36.65
2023-02-12T12:35:03.891Z,36.73
2023-02-12T12:37:37.672Z,36.66
2023-02-12T12:40:08.207Z,36.72
2023-02-12T12:42:41.100Z,36.63
2023-02-12T12:45:26.149Z,36.79
2023-02-12T12:47:55.798Z,36.67
2023-02-12T12:50:37.439Z,36.52
2023-02-12T12:53:04.156Z,36.52
2023-02-12T12:55:49.080Z,36.70
2023-02-12T12:58:19.007Z,36.61
2023-02-12T13:00:48.683Z,36.57
2023-02-12T13:03:18.040Z,36.43
2023-02-12T13:05:44.305Z,36.69
2023-02-12T13:08:15.236Z,36.75
2023-02-12T13:10:44.518Z,36.73
2023-02-12T13:13:15.474Z,36.80
2023-02-12T13:15:50.784Z,36.78
2023-02-12T13:18:19.850Z,36.95
2023-02-12T13:20:55.271Z,36.72
2023-02-12T13:23:24.090Z,36.75
2023-02-12T13:25:59.900Z,36.91
2023-02-12T13:28:30.077Z,36.90
2023-02-12T13:30:56.615Z,36.77
2023-02-12T13:33:27.731Z,36.60
2023-02-12T13:35:59.236Z,36.66
2023-02-12T13:38:26.175Z,36.75
2023-02-12T13:40:53.357Z,36.54
2023-02-12T13:43:19.637Z,36.59
2023-02-12T13:45:53.108Z,36.53
2023-02-12T13:48:38.400Z,36.66
2023-02-12T13:51:04.731Z,36.27
2023-02-12T13:53:49.801Z,36.20
2023-02-12T13:56:29.650Z,36.17
2023-02-12T13:58:56.251Z,36.53
2023-02-12T14:01:34.873Z,36.06
2023-02-12T14:04:14.021Z,35.65
2023-02-12T14:06:40.336Z,35.37
2023-02-12T14:09:10.131Z,35.12
2023-02-12T14:11:46.312Z,35.08
2023-02-12T14:14:12.626Z,34.98
2023-02-12T14:16:39.734Z,34.85
2023-02-12T14:19:24.915Z,34.73
2023-02-12T14:21:51.237Z,34.95
2023-02-12T14:24:35.937Z,35.08
2023-02-12T14:27:03.195Z,34.94
2023-02-12T14:29:29.508Z,35.03
2023-02-12T14:31:56.441Z,34.87
2023-02-12T14:34:22.736Z,34.83
2023-02-12T14:36:49.242Z,34.63
2023-02-12T14:39:22.215Z,34.55
2023-02-12T14:41:48.974Z,34.52
2023-02-12T14:44:18.195Z,34.47
2023-02-12T14:46:54.190Z,34.26
2023-02-12T14:49:27.064Z,34.53
2023-02-12T14:51:53.343Z,34.40
2023-02-12T14:54:27.769Z,34.58
2023-02-12T14:56:55.585Z,34.16
2023-02-12T14:59:23.085Z,34.11
2023-02-12T15:01:49.454Z,34.15
2023-02-12T15:04:28.767Z,34.34
2023-02-12T15:06:56.710Z,34.21
2023-02-12T15:09:35.624Z,34.15
2023-02-12T15:12:06.119Z,34.25
2023-02-12T15:14:32.424Z,34.06
2023-02-12T15:16:59.954Z,34.54
2023-02-12T15:19:30.750Z,34.31
2023-02-12T15:21:57.108Z,34.37
2023-02-12T15:24:24.148Z,34.42
2023-02-12T15:26:51.459Z,34.41
2023-02-12T15:29:20.892Z,34.44
2023-02-12T15:31:50.288Z,34.38
2023-02-12T15:34:17.415Z,34.26
2023-02-12T15:36:44.472Z,34.31
2023-02-12T15:39:15.342Z,34.16
2023-02-12T15:41:43.489Z,33.96
2023-02-12T15:44:23.613Z,34.27
2023-02-12T15:47:00.176Z,34.01
2023-02-12T15:49:27.140Z,34.38
2023-02-12T15:51:53.682Z,34.16
2023-02-12T15:54:20.166Z,34.02
2023-02-12T15:56:46.488Z,34.45
2023-02-12T15:59:18.736Z,34.52
2023-02-12T16:01:51.813Z,34.38
2023-02-12T16:04:18.250Z,34.49
2023-02-12T16:06:44.594Z,34.75
2023-02-12T16:09:13.963Z,34.73
2023-02-12T16:11:40.306Z,34.29
2023-02-12T16:14:19.362Z,34.62
2023-02-12T16:16:48.700Z,34.45
2023-02-12T16:19:22.019Z,34.46
2023-02-12T16:21:49.879Z,34.48
2023-02-12T16:24:21.747Z,34.20
2023-02-12T16:26:48.770Z,34.43
2023-02-12T16:29:18.157Z,34.62
2023-02-12T16:31:54.462Z,34.07
2023-02-12T16:34:27.257Z,34.20
2023-02-12T16:36:53.588Z,34.01
2023-02-12T16:39:38.967Z,33.88
2023-02-12T16:42:09.858Z,33.97
2023-02-12T16:44:36.219Z,33.51
2023-02-12T16:47:02.714Z,33.21
2023-02-12T16:49:29.026Z,32.79
2023-02-12T16:52:15.327Z,32.86
2023-02-12T16:54:41.639Z,32.86
2023-02-12T16:57:09.790Z,32.89
2023-02-12T16:59:43.302Z,32.82
2023-02-12T17:02:10.934Z,32.96
2023-02-12T17:04:37.249Z,32.72
2023-02-12T17:07:03.589Z,33.04
2023-02-12T17:09:30.136Z,32.80
2023-02-12T17:11:57.424Z,33.24
2023-02-12T17:14:23.734Z,33.05
2023-02-12T17:16:50.381Z,33.03
2023-02-12T17:19:17.238Z,32.60
2023-02-12T17:21:44.102Z,32.87
2023-02-12T17:24:14.168Z,33.19
2023-02-12T17:26:40.520Z,33.13
2023-02-12T17:29:06.840Z,33.30
2023-02-12T17:31:33.684Z,33.49
2023-02-12T17:34:00.135Z,33.59
2023-02-12T17:36:26.548Z,33.74
2023-02-12T17:38:52.872Z,33.74
2023-02-12T17:41:19.188Z,33.95
2023-02-12T17:43:46.333Z,34.00
2023-02-12T17:46:13.974Z,34.21
2023-02-12T17:48:40.966Z,34.12
2023-02-12T17:51:08.712Z,34.28
2023-02-12T17:53:35.032Z,34.07
2023-02-12T17:56:01.348Z,34.04
2023-02-12T17:58:27.707Z,34.14
2023-02-12T18:00:55.302Z,34.13
2023-02-12T18:03:21.907Z,34.35
2023-02-12T18:05:48.242Z,34.43
2023-02-12T18:08:14.625Z,34.17
2023-02-12T18:10:41.652Z,34.57
2023-02-12T18:13:07.996Z,34.39
2023-02-12T18:15:34.383Z,34.27
2023-02-12T18:18:00.742Z,34.06
2023-02-12T18:20:27.490Z,34.35
2023-02-12T18:22:53.887Z,34.37
2023-02-12T18:25:20.210Z,34.37
2023-02-12T18:27:46.549Z,34.39
2023-02-12T18:30:13.142Z,34.16
2023-02-12T18:32:39.477Z,34.20
2023-02-12T18:35:06.311Z,33.96
2023-02-12T18:37:32.786Z,34.01
2023-02-12T18:39:59.167Z,34.36
2023-02-12T18:42:26.113Z,34.01
2023-02-12T18:44:52.514Z,34.29
2023-02-12T18:47:19.724Z,34.29
2023-02-12T18:49:46.092Z,34.14
2023-02-12T18:52:12.397Z,35.83
2023-02-12T18:54:38.716Z,35.21
2023-02-12T18:57:05.044Z,35.21
2023-02-12T18:59:31.360Z,35.82
2023-02-12T19:01:57.806Z,36.45
2023-02-12T19:04:26.487Z,36.16
2023-02-12T19:06:53.310Z,36.12
2023-02-12T19:09:20.357Z,35.52
2023-02-12T19:11:47.427Z,35.08
2023-02-12T19:14:14.239Z,35.43
2023-02-12T19:16:40.663Z,35.30
2023-02-12T19:19:08.167Z,35.40
2023-02-12T19:21:34.530Z,35.78
2023-02-12T19:24:01.389Z,36.08
2023-02-12T19:26:28.834Z,35.97
2023-02-12T19:28:55.466Z,35.79
2023-02-12T19:31:21.819Z,35.89
2023-02-12T19:33:48.641Z,35.46
2023-02-12T19:36:15.910Z,36.02
2023-02-12T19:38:42.238Z,36.11
2023-02-12T19:41:12.795Z,35.96
2023-02-12T19:43:39.140Z,35.83
2023-02-12T19:46:06.879Z,35.90
2023-02-12T19:48:33.213Z,35.44
2023-02-12T19:50:59.529Z,35.66
2023-02-12T19:53:25.876Z,35.79
2023-02-12T19:55:52.183Z,35.82
2023-02-12T19:58:18.754Z,35.35
2023-02-12T20:00:45.068Z,35.88
2023-02-12T20:03:11.729Z,35.59
2023-02-12T20:05:44.563Z,35.54
2023-02-12T20:08:10.928Z,35.53
2023-02-12T20:10:40.520Z,35.48
2023-02-12T20:13:06.892Z,35.80
2023-02-12T20:15:34.261Z,35.46
2023-02-12T20:18:00.616Z,35.42
2023-02-12T20:20:26.923Z,35.82
2023-02-12T20:22:53.245Z,36.25
2023-02-12T20:25:19.600Z,36.03
2023-02-12T20:27:45.914Z,35.77
2023-02-12T20:30:12.376Z,35.61
2023-02-12T20:32:38.712Z,35.95
2023-02-12T20:35:05.106Z,35.54
2023-02-12T20:37:33.063Z,35.54
2023-02-12T20:39:59.378Z,35.54
2023-02-12T20:42:25.713Z,35.84
2023-02-12T20:44:52.028Z,35.68
2023-02-12T20:47:18.334Z,35.92
2023-02-12T20:49:44.648Z,35.94
2023-02-12T20:52:11.160Z,35.90
2023-02-12T20:54:39.260Z,35.90
2023-02-12T20:57:06.918Z,35.92
2023-02-12T20:59:33.222Z,35.92
2023-02-12T21:01:59.554Z,35.92
2023-02-12T21:04:26.532Z,35.82
2023-02-12T21:06:53.405Z,35.57
2023-02-12T21:09:19.896Z,36.01
2023-02-12T21:11:46.334Z,35.61
2023-02-12T21:14:23.175Z,35.47
2023-02-12T21:16:50.108Z,35.42
2023-02-12T21:19:17.836Z,35.47
2023-02-12T21:21:45.445Z,35.49
2023-02-12T21:24:12.855Z,35.31
2023-02-12T21:26:39.164Z,34.91
2023-02-12T21:29:05.494Z,34.53
2023-02-12T21:31:31.929Z,34.77
2023-02-12T21:33:58.614Z,34.94
2023-02-12T21:36:28.817Z,34.84
2023-02-12T21:38:55.181Z,35.25
2023-02-12T21:41:25.362Z,34.99
2023-02-12T21:44:11.874Z,34.98
2023-02-12T21:46:38.188Z,35.28
2023-02-12T21:49:04.760Z,35.23
2023-02-12T21:51:32.312Z,35.14
2023-02-12T21:53:59.341Z,34.82
2023-02-12T21:56:25.800Z,34.84
2023-02-12T21:58:52.149Z,34.65
2023-02-12T22:01:22.814Z,34.56
2023-02-12T22:03:49.204Z,34.45
2023-02-12T22:06:17.623Z,34.03
2023-02-12T22:08:43.943Z,33.50
2023-02-12T22:11:10.420Z,33.32
2023-02-12T22:13:37.399Z,33.17
2023-02-12T22:16:19.901Z,33.32
2023-02-12T22:18:46.345Z,33.22
2023-02-12T22:21:13.698Z,33.23
2023-02-12T22:23:40.126Z,33.22
2023-02-12T22:26:10.641Z,33.46
2023-02-12T22:28:40.936Z,33.04
2023-02-12T22:31:07.901Z,33.52
2023-02-12T22:33:34.216Z,33.62
2023-02-12T22:36:07.569Z,33.59
2023-02-12T22:38:34.288Z,33.21
2023-02-12T22:41:00.712Z,33.20
2023-02-12T22:43:30.247Z,33.01
2023-02-12T22:45:56.714Z,33.42
2023-02-12T22:48:23.239Z,33.00
2023-02-12T22:50:49.554Z,33.04
2023-02-12T22:53:15.921Z,32.91
2023-02-12T22:55:42.245Z,32.71
2023-02-12T22:58:08.596Z,33.05
2023-02-12T23:00:34.907Z,33.08
2023-02-12T23:03:01.212Z,33.24
2023-02-12T23:05:27.588Z,33.00
2023-02-12T23:07:53.905Z,33.13
2023-02-12T23:10:20.254Z,33.46
2023-02-12T23:12:46.559Z,33.37
2023-02-12T23:15:12.877Z,33.71
2023-02-12T23:17:39.194Z,33.62
2023-02-12T23:20:05.593Z,33.35
2023-02-12T23:22:31.916Z,33.16
2023-02-12T23:24:58.240Z,32.88
2023-02-12T23:27:24.568Z,33.21
2023-02-12T23:29:50.880Z,33.35
2023-02-12T23:32:17.367Z,33.40
2023-02-12T23:34:43.687Z,32.07
2023-02-12T23:37:10.012Z,33.63
2023-02-12T23:39:37.155Z,33.15
2023-02-12T23:42:03.584Z,32.98
2023-02-12T23:44:29.945Z,32.77
2023-02-12T23:46:56.246Z,33.41
2023-02-12T23:49:22.593Z,33.22
2023-02-12T23:51:48.968Z,33.50
2023-02-12T23:54:15.307Z,33.07
2023-02-12T23:56:41.614Z,33.45
2023-02-12T23:59:07.925Z,33.24
